sensor_id;sensor_type;location;lat;lon;timestamp;P1;durP1;ratioP1;P2;durP2;ratioP2
4821;SDS011;2425;47.794;13.068;2023-06-14T00:02:13;2.37;;;2.20;;
4821;SDS011;2425;47.794;13.068;2023-06-14T00:04:40;1.73;;;1.63;;
4821;SDS011;2425;47.794;13.068;2023-06-14T00:07:08;1.87;;;1.77;;
4821;SDS011;2425;47.794;13.068;2023-06-14T00:09:35;2.10;;;2.00;;
4821;SDS011;2425;47.794;13.068;2023-06-14T00:12:03;1.70;;;1.70;;
4821;SDS011;2425;47.794;13.068;2023-06-14T00:14:31;1.60;;;1.60;;
4821;SDS011;2425;47.794;13.068;2023-06-14T00:16:58;2.00;;;1.93;;
4821;SDS011;2425;47.794;13.068;2023-06-14T00:19:24;2.20;;;2.10;;
4821;SDS011;2425;47.794;13.068;2023-06-14T00:21:51;1.90;;;1.90;;
4821;SDS011;2425;47.794;13.068;2023-06-14T00:24:18;2.57;;;2.47;;
4821;SDS011;2425;47.794;13.068;2023-06-14T00:26:45;1.80;;;1.80;;
4821;SDS011;2425;47.794;13.068;2023-06-14T00:29:13;2.33;;;2.23;;
4821;SDS011;2425;47.794;13.068;2023-06-14T00:31:40;1.97;;;1.97;;
4821;SDS011;2425;47.794;13.068;2023-06-14T00:34:06;2.53;;;2.17;;
4821;SDS011;2425;47.794;13.068;2023-06-14T00:36:34;2.10;;;2.00;;
4821;SDS011;2425;47.794;13.068;2023-06-14T00:39:01;2.00;;;1.90;;
4821;SDS011;2425;47.794;13.068;2023-06-14T00:41:28;1.83;;;1.73;;
4821;SDS011;2425;47.794;13.068;2023-06-14T00:43:55;1.60;;;1.60;;
4821;SDS011;2425;47.794;13.068;2023-06-14T00:46:23;1.93;;;1.83;;
4821;SDS011;2425;47.794;13.068;2023-06-14T00:48:50;1.87;;;1.87;;
4821;SDS011;2425;47.794;13.068;2023-06-14T00:51:17;1.70;;;1.70;;
4821;SDS011;2425;47.794;13.068;2023-06-14T00:53:44;2.10;;;2.00;;
4821;SDS011;2425;47.794;13.068;2023-06-14T00:56:11;1.87;;;1.87;;
4821;SDS011;2425;47.794;13.068;2023-06-14T00:58:38;2.00;;;1.90;;
4821;SDS011;2425;47.794;13.068;2023-06-14T01:01:05;1.60;;;1.50;;
4821;SDS011;2425;47.794;13.068;2023-06-14T01:03:33;3.50;;;1.43;;
4821;SDS011;2425;47.794;13.068;2023-06-14T01:06:02;1.80;;;1.80;;
4821;SDS011;2425;47.794;13.068;2023-06-14T01:08:37;1.77;;;1.67;;
4821;SDS011;2425;47.794;13.068;2023-06-14T01:11:16;1.60;;;1.60;;
4821;SDS011;2425;47.794;13.068;2023-06-14T01:13:45;2.00;;;1.90;;
4821;SDS011;2425;47.794;13.068;2023-06-14T01:16:12;1.80;;;1.80;;
4821;SDS011;2425;47.794;13.068;2023-06-14T01:18:41;2.07;;;1.97;;
4821;SDS011;2425;47.794;13.068;2023-06-14T01:21:19;1.47;;;1.43;;
4821;SDS011;2425;47.794;13.068;2023-06-14T01:23:48;1.67;;;1.63;;
4821;SDS011;2425;47.794;13.068;2023-06-14T01:26:18;1.80;;;1.80;;
4821;SDS011;2425;47.794;13.068;2023-06-14T01:28:45;1.67;;;1.57;;
4821;SDS011;2425;47.794;13.068;2023-06-14T01:31:17;1.87;;;1.87;;
4821;SDS011;2425;47.794;13.068;2023-06-14T01:33:46;1.77;;;1.70;;
4821;SDS011;2425;47.794;13.068;2023-06-14T01:36:14;2.20;;;2.10;;
4821;SDS011;2425;47.794;13.068;2023-06-14T01:38:41;1.80;;;1.80;;
4821;SDS011;2425;47.794;13.068;2023-06-14T01:41:10;2.00;;;1.90;;
4821;SDS011;2425;47.794;13.068;2023-06-14T01:43:37;1.43;;;1.43;;
4821;SDS011;2425;47.794;13.068;2023-06-14T01:46:05;1.87;;;1.83;;
4821;SDS011;2425;47.794;13.068;2023-06-14T01:48:32;1.67;;;1.67;;
4821;SDS011;2425;47.794;13.068;2023-06-14T01:50:59;1.67;;;1.67;;
4821;SDS011;2425;47.794;13.068;2023-06-14T01:53:25;1.60;;;1.60;;
4821;SDS011;2425;47.794;13.068;2023-06-14T01:55:52;1.50;;;1.50;;
4821;SDS011;2425;47.794;13.068;2023-06-14T01:58:20;1.60;;;1.60;;
4821;SDS011;2425;47.794;13.068;2023-06-14T02:00:48;2.10;;;2.03;;
4821;SDS011;2425;47.794;13.068;2023-06-14T02:03:16;1.57;;;1.57;;
4821;SDS011;2425;47.794;13.068;2023-06-14T02:05:44;1.80;;;1.70;;
4821;SDS011;2425;47.794;13.068;2023-06-14T02:08:11;1.67;;;1.67;;
4821;SDS011;2425;47.794;13.068;2023-06-14T02:10:37;1.90;;;1.80;;
4821;SDS011;2425;47.794;13.068;2023-06-14T02:13:04;1.90;;;1.80;;
4821;SDS011;2425;47.794;13.068;2023-06-14T02:15:32;1.67;;;1.57;;
4821;SDS011;2425;47.794;13.068;2023-06-14T02:18:00;1.73;;;1.70;;
4821;SDS011;2425;47.794;13.068;2023-06-14T02:20:28;1.67;;;1.67;;
4821;SDS011;2425;47.794;13.068;2023-06-14T02:22:55;1.60;;;1.50;;
4821;SDS011;2425;47.794;13.068;2023-06-14T02:25:22;1.63;;;1.63;;
4821;SDS011;2425;47.794;13.068;2023-06-14T02:27:48;1.50;;;1.50;;
4821;SDS011;2425;47.794;13.068;2023-06-14T02:30:15;1.67;;;1.67;;
4821;SDS011;2425;47.794;13.068;2023-06-14T02:32:43;1.47;;;1.47;;
4821;SDS011;2425;47.794;13.068;2023-06-14T02:35:10;1.40;;;1.40;;
4821;SDS011;2425;47.794;13.068;2023-06-14T02:37:37;1.30;;;1.30;;
4821;SDS011;2425;47.794;13.068;2023-06-14T02:40:04;1.70;;;1.70;;
4821;SDS011;2425;47.794;13.068;2023-06-14T02:42:32;1.60;;;1.60;;
4821;SDS011;2425;47.794;13.068;2023-06-14T02:44:59;1.53;;;1.53;;
4821;SDS011;2425;47.794;13.068;2023-06-14T02:47:27;1.43;;;1.43;;
4821;SDS011;2425;47.794;13.068;2023-06-14T02:49:55;1.43;;;1.43;;
4821;SDS011;2425;47.794;13.068;2023-06-14T02:52:22;1.40;;;1.40;;
4821;SDS011;2425;47.794;13.068;2023-06-14T02:54:50;2.00;;;1.90;;
4821;SDS011;2425;47.794;13.068;2023-06-14T02:57:17;1.60;;;1.50;;
4821;SDS011;2425;47.794;13.068;2023-06-14T02:59:43;1.47;;;1.47;;
4821;SDS011;2425;47.794;13.068;2023-06-14T03:02:10;1.43;;;1.43;;
4821;SDS011;2425;47.794;13.068;2023-06-14T03:04:37;1.63;;;1.60;;
4821;SDS011;2425;47.794;13.068;2023-06-14T03:07:05;1.43;;;1.30;;
4821;SDS011;2425;47.794;13.068;2023-06-14T03:09:34;1.47;;;1.40;;
4821;SDS011;2425;47.794;13.068;2023-06-14T03:12:01;1.50;;;1.50;;
4821;SDS011;2425;47.794;13.068;2023-06-14T03:14:28;1.70;;;1.70;;
4821;SDS011;2425;47.794;13.068;2023-06-14T03:16:55;1.53;;;1.50;;
4821;SDS011;2425;47.794;13.068;2023-06-14T03:19:22;1.40;;;1.40;;
4821;SDS011;2425;47.794;13.068;2023-06-14T03:21:49;1.20;;;1.20;;
4821;SDS011;2425;47.794;13.068;2023-06-14T03:24:17;1.60;;;1.60;;
4821;SDS011;2425;47.794;13.068;2023-06-14T03:26:43;1.60;;;1.60;;
4821;SDS011;2425;47.794;13.068;2023-06-14T03:29:10;1.17;;;1.17;;
4821;SDS011;2425;47.794;13.068;2023-06-14T03:31:42;1.40;;;1.40;;
4821;SDS011;2425;47.794;13.068;2023-06-14T03:34:23;1.60;;;1.60;;
4821;SDS011;2425;47.794;13.068;2023-06-14T03:36:49;1.50;;;1.50;;
4821;SDS011;2425;47.794;13.068;2023-06-14T03:39:17;1.33;;;1.33;;
4821;SDS011;2425;47.794;13.068;2023-06-14T03:41:44;1.70;;;1.70;;
4821;SDS011;2425;47.794;13.068;2023-06-14T03:44:11;1.50;;;1.50;;
4821;SDS011;2425;47.794;13.068;2023-06-14T03:46:39;1.30;;;1.30;;
4821;SDS011;2425;47.794;13.068;2023-06-14T03:49:06;1.40;;;1.40;;
4821;SDS011;2425;47.794;13.068;2023-06-14T03:51:33;1.50;;;1.50;;
4821;SDS011;2425;47.794;13.068;2023-06-14T03:54:00;1.27;;;1.27;;
4821;SDS011;2425;47.794;13.068;2023-06-14T03:56:28;1.50;;;1.50;;
4821;SDS011;2425;47.794;13.068;2023-06-14T03:58:55;1.40;;;1.40;;
4821;SDS011;2425;47.794;13.068;2023-06-14T04:01:22;1.20;;;1.20;;
4821;SDS011;2425;47.794;13.068;2023-06-14T04:03:54;1.50;;;1.50;;
4821;SDS011;2425;47.794;13.068;2023-06-14T04:06:22;1.30;;;1.30;;
4821;SDS011;2425;47.794;13.068;2023-06-14T04:08:50;1.23;;;1.23;;
4821;SDS011;2425;47.794;13.068;2023-06-14T04:11:17;1.27;;;1.27;;
4821;SDS011;2425;47.794;13.068;2023-06-14T04:13:45;1.50;;;1.50;;
4821;SDS011;2425;47.794;13.068;2023-06-14T04:16:12;1.40;;;1.40;;
4821;SDS011;2425;47.794;13.068;2023-06-14T04:18:39;1.30;;;1.30;;
4821;SDS011;2425;47.794;13.068;2023-06-14T04:21:06;1.10;;;1.10;;
4821;SDS011;2425;47.794;13.068;2023-06-14T04:23:33;1.60;;;1.60;;
4821;SDS011;2425;47.794;13.068;2023-06-14T04:26:00;1.30;;;1.30;;
4821;SDS011;2425;47.794;13.068;2023-06-14T04:28:27;1.73;;;1.63;;
4821;SDS011;2425;47.794;13.068;2023-06-14T04:30:57;1.57;;;1.57;;
4821;SDS011;2425;47.794;13.068;2023-06-14T04:33:26;1.60;;;1.60;;
4821;SDS011;2425;47.794;13.068;2023-06-14T04:35:53;1.10;;;1.10;;
4821;SDS011;2425;47.794;13.068;2023-06-14T04:38:21;1.33;;;1.33;;
4821;SDS011;2425;47.794;13.068;2023-06-14T04:40:50;1.40;;;1.40;;
4821;SDS011;2425;47.794;13.068;2023-06-14T04:43:18;1.07;;;1.07;;
4821;SDS011;2425;47.794;13.068;2023-06-14T04:45:52;1.30;;;1.30;;
4821;SDS011;2425;47.794;13.068;2023-06-14T04:48:22;1.50;;;1.50;;
4821;SDS011;2425;47.794;13.068;2023-06-14T04:50:49;1.37;;;1.37;;
4821;SDS011;2425;47.794;13.068;2023-06-14T04:53:18;1.40;;;1.40;;
4821;SDS011;2425;47.794;13.068;2023-06-14T04:55:48;1.40;;;1.40;;
4821;SDS011;2425;47.794;13.068;2023-06-14T04:58:15;1.50;;;1.50;;
4821;SDS011;2425;47.794;13.068;2023-06-14T05:00:43;1.10;;;1.10;;
4821;SDS011;2425;47.794;13.068;2023-06-14T05:03:10;1.40;;;1.40;;
4821;SDS011;2425;47.794;13.068;2023-06-14T05:05:40;1.20;;;1.20;;
4821;SDS011;2425;47.794;13.068;2023-06-14T05:08:06;1.50;;;1.50;;
4821;SDS011;2425;47.794;13.068;2023-06-14T05:10:33;1.13;;;1.13;;
4821;SDS011;2425;47.794;13.068;2023-06-14T05:13:01;1.10;;;1.10;;
4821;SDS011;2425;47.794;13.068;2023-06-14T05:15:28;1.30;;;1.30;;
4821;SDS011;2425;47.794;13.068;2023-06-14T05:17:54;1.47;;;1.47;;
4821;SDS011;2425;47.794;13.068;2023-06-14T05:20:21;1.50;;;1.50;;
4821;SDS011;2425;47.794;13.068;2023-06-14T05:22:51;1.30;;;1.30;;
4821;SDS011;2425;47.794;13.068;2023-06-14T05:25:18;1.50;;;1.50;;
4821;SDS011;2425;47.794;13.068;2023-06-14T05:27:45;1.37;;;1.37;;
4821;SDS011;2425;47.794;13.068;2023-06-14T05:30:12;1.07;;;1.07;;
4821;SDS011;2425;47.794;13.068;2023-06-14T05:32:39;1.40;;;1.40;;
4821;SDS011;2425;47.794;13.068;2023-06-14T05:35:06;1.30;;;1.30;;
4821;SDS011;2425;47.794;13.068;2023-06-14T05:37:33;1.40;;;1.40;;
4821;SDS011;2425;47.794;13.068;2023-06-14T05:40:01;1.40;;;1.40;;
4821;SDS011;2425;47.794;13.068;2023-06-14T05:42:30;1.40;;;1.40;;
4821;SDS011;2425;47.794;13.068;2023-06-14T05:44:57;1.10;;;1.10;;
4821;SDS011;2425;47.794;13.068;2023-06-14T05:47:24;1.50;;;1.50;;
4821;SDS011;2425;47.794;13.068;2023-06-14T05:49:50;1.60;;;1.50;;
4821;SDS011;2425;47.794;13.068;2023-06-14T05:52:17;1.30;;;1.30;;
4821;SDS011;2425;47.794;13.068;2023-06-14T05:54:44;1.27;;;1.27;;
4821;SDS011;2425;47.794;13.068;2023-06-14T05:57:12;1.20;;;1.20;;
4821;SDS011;2425;47.794;13.068;2023-06-14T05:59:39;1.10;;;1.10;;
4821;SDS011;2425;47.794;13.068;2023-06-14T06:02:05;1.30;;;1.20;;
4821;SDS011;2425;47.794;13.068;2023-06-14T06:04:32;1.40;;;1.40;;
4821;SDS011;2425;47.794;13.068;2023-06-14T06:06:59;1.40;;;1.40;;
4821;SDS011;2425;47.794;13.068;2023-06-14T06:09:25;1.33;;;1.33;;
4821;SDS011;2425;47.794;13.068;2023-06-14T06:11:52;1.13;;;1.13;;
4821;SDS011;2425;47.794;13.068;2023-06-14T06:14:20;1.00;;;1.00;;
4821;SDS011;2425;47.794;13.068;2023-06-14T06:16:47;1.07;;;1.07;;
4821;SDS011;2425;47.794;13.068;2023-06-14T06:19:14;1.00;;;1.00;;
4821;SDS011;2425;47.794;13.068;2023-06-14T06:21:41;1.10;;;1.10;;
4821;SDS011;2425;47.794;13.068;2023-06-14T06:24:07;1.03;;;1.03;;
4821;SDS011;2425;47.794;13.068;2023-06-14T06:26:34;1.23;;;1.23;;
4821;SDS011;2425;47.794;13.068;2023-06-14T06:29:01;1.10;;;1.10;;
4821;SDS011;2425;47.794;13.068;2023-06-14T06:31:29;1.30;;;1.30;;
4821;SDS011;2425;47.794;13.068;2023-06-14T06:33:56;1.30;;;1.30;;
4821;SDS011;2425;47.794;13.068;2023-06-14T06:36:23;1.33;;;1.33;;
4821;SDS011;2425;47.794;13.068;2023-06-14T06:38:50;1.03;;;1.03;;
4821;SDS011;2425;47.794;13.068;2023-06-14T06:41:17;0.97;;;0.97;;
4821;SDS011;2425;47.794;13.068;2023-06-14T06:43:44;0.80;;;0.80;;
4821;SDS011;2425;47.794;13.068;2023-06-14T06:46:11;1.07;;;1.07;;
4821;SDS011;2425;47.794;13.068;2023-06-14T06:48:39;1.00;;;1.00;;
4821;SDS011;2425;47.794;13.068;2023-06-14T06:51:05;1.30;;;1.20;;
4821;SDS011;2425;47.794;13.068;2023-06-14T06:53:32;1.10;;;1.10;;
4821;SDS011;2425;47.794;13.068;2023-06-14T06:55:59;1.00;;;1.00;;
4821;SDS011;2425;47.794;13.068;2023-06-14T06:58:26;1.07;;;1.07;;
4821;SDS011;2425;47.794;13.068;2023-06-14T07:00:52;1.17;;;1.17;;
4821;SDS011;2425;47.794;13.068;2023-06-14T07:03:19;0.83;;;0.83;;
4821;SDS011;2425;47.794;13.068;2023-06-14T07:05:47;0.90;;;0.90;;
4821;SDS011;2425;47.794;13.068;2023-06-14T07:08:14;1.20;;;1.20;;
4821;SDS011;2425;47.794;13.068;2023-06-14T07:10:40;0.90;;;0.90;;
4821;SDS011;2425;47.794;13.068;2023-06-14T07:13:07;2.30;;;2.10;;
4821;SDS011;2425;47.794;13.068;2023-06-14T07:15:34;2.23;;;2.13;;
4821;SDS011;2425;47.794;13.068;2023-06-14T07:18:01;3.00;;;2.50;;
4821;SDS011;2425;47.794;13.068;2023-06-14T07:20:27;2.17;;;2.07;;
4821;SDS011;2425;47.794;13.068;2023-06-14T07:22:55;2.50;;;2.40;;
4821;SDS011;2425;47.794;13.068;2023-06-14T07:25:22;2.83;;;2.63;;
4821;SDS011;2425;47.794;13.068;2023-06-14T07:27:49;2.70;;;2.60;;
4821;SDS011;2425;47.794;13.068;2023-06-14T07:30:15;2.73;;;2.50;;
4821;SDS011;2425;47.794;13.068;2023-06-14T07:32:42;2.80;;;2.70;;
4821;SDS011;2425;47.794;13.068;2023-06-14T07:35:09;2.90;;;2.80;;
4821;SDS011;2425;47.794;13.068;2023-06-14T07:37:35;4.83;;;2.80;;
4821;SDS011;2425;47.794;13.068;2023-06-14T07:40:04;3.50;;;2.47;;
4821;SDS011;2425;47.794;13.068;2023-06-14T07:42:32;4.13;;;3.00;;
4821;SDS011;2425;47.794;13.068;2023-06-14T07:44:59;5.33;;;2.63;;
4821;SDS011;2425;47.794;13.068;2023-06-14T07:47:26;3.00;;;2.70;;
4821;SDS011;2425;47.794;13.068;2023-06-14T07:49:53;2.70;;;2.60;;
4821;SDS011;2425;47.794;13.068;2023-06-14T07:52:19;2.77;;;2.50;;
4821;SDS011;2425;47.794;13.068;2023-06-14T07:54:46;3.03;;;2.87;;
4821;SDS011;2425;47.794;13.068;2023-06-14T07:57:14;3.47;;;3.17;;
4821;SDS011;2425;47.794;13.068;2023-06-14T07:59:41;10.23;;;3.27;;
4821;SDS011;2425;47.794;13.068;2023-06-14T08:02:08;3.40;;;3.10;;
4821;SDS011;2425;47.794;13.068;2023-06-14T08:04:34;3.43;;;3.23;;
4821;SDS011;2425;47.794;13.068;2023-06-14T08:07:01;5.03;;;2.90;;
4821;SDS011;2425;47.794;13.068;2023-06-14T08:09:28;3.60;;;3.30;;
4821;SDS011;2425;47.794;13.068;2023-06-14T08:11:55;3.10;;;2.90;;
4821;SDS011;2425;47.794;13.068;2023-06-14T08:14:23;3.13;;;2.93;;
4821;SDS011;2425;47.794;13.068;2023-06-14T08:16:49;3.57;;;2.90;;
4821;SDS011;2425;47.794;13.068;2023-06-14T08:19:16;4.70;;;3.20;;
4821;SDS011;2425;47.794;13.068;2023-06-14T08:21:43;4.77;;;3.13;;
4821;SDS011;2425;47.794;13.068;2023-06-14T08:24:11;3.03;;;2.87;;
4821;SDS011;2425;47.794;13.068;2023-06-14T08:26:38;3.03;;;2.77;;
4821;SDS011;2425;47.794;13.068;2023-06-14T08:29:04;2.87;;;2.70;;
4821;SDS011;2425;47.794;13.068;2023-06-14T08:31:34;2.90;;;2.70;;
4821;SDS011;2425;47.794;13.068;2023-06-14T08:34:01;2.80;;;2.63;;
4821;SDS011;2425;47.794;13.068;2023-06-14T08:36:27;4.27;;;3.03;;
4821;SDS011;2425;47.794;13.068;2023-06-14T08:38:54;4.23;;;2.90;;
4821;SDS011;2425;47.794;13.068;2023-06-14T08:41:22;3.37;;;2.73;;
4821;SDS011;2425;47.794;13.068;2023-06-14T08:43:49;3.63;;;3.40;;
4821;SDS011;2425;47.794;13.068;2023-06-14T08:46:17;3.50;;;2.87;;
4821;SDS011;2425;47.794;13.068;2023-06-14T08:48:46;3.77;;;2.90;;
4821;SDS011;2425;47.794;13.068;2023-06-14T08:51:13;6.00;;;2.77;;
4821;SDS011;2425;47.794;13.068;2023-06-14T08:53:41;2.50;;;2.40;;
4821;SDS011;2425;47.794;13.068;2023-06-14T08:56:09;3.03;;;2.83;;
4821;SDS011;2425;47.794;13.068;2023-06-14T08:58:38;4.13;;;2.90;;
4821;SDS011;2425;47.794;13.068;2023-06-14T09:01:08;2.57;;;2.47;;
4821;SDS011;2425;47.794;13.068;2023-06-14T09:03:37;2.50;;;2.40;;
4821;SDS011;2425;47.794;13.068;2023-06-14T09:06:07;3.00;;;2.80;;
4821;SDS011;2425;47.794;13.068;2023-06-14T09:08:38;2.90;;;2.70;;
4821;SDS011;2425;47.794;13.068;2023-06-14T09:11:07;2.70;;;2.60;;
4821;SDS011;2425;47.794;13.068;2023-06-14T09:13:34;2.80;;;2.70;;
4821;SDS011;2425;47.794;13.068;2023-06-14T09:16:01;2.70;;;2.50;;
4821;SDS011;2425;47.794;13.068;2023-06-14T09:18:35;2.70;;;2.60;;
4821;SDS011;2425;47.794;13.068;2023-06-14T09:21:02;7.00;;;2.67;;
4821;SDS011;2425;47.794;13.068;2023-06-14T09:23:30;2.60;;;2.50;;
4821;SDS011;2425;47.794;13.068;2023-06-14T09:26:00;2.40;;;2.30;;
4821;SDS011;2425;47.794;13.068;2023-06-14T09:28:27;2.67;;;2.53;;
4821;SDS011;2425;47.794;13.068;2023-06-14T09:30:54;3.00;;;2.77;;
4821;SDS011;2425;47.794;13.068;2023-06-14T09:33:21;2.63;;;2.43;;
4821;SDS011;2425;47.794;13.068;2023-06-14T09:35:50;2.20;;;2.10;;
4821;SDS011;2425;47.794;13.068;2023-06-14T09:38:18;3.07;;;2.90;;
4821;SDS011;2425;47.794;13.068;2023-06-14T09:40:46;2.43;;;2.33;;
4821;SDS011;2425;47.794;13.068;2023-06-14T09:43:13;2.87;;;2.63;;
4821;SDS011;2425;47.794;13.068;2023-06-14T09:45:40;2.60;;;2.50;;
4821;SDS011;2425;47.794;13.068;2023-06-14T09:48:10;2.93;;;2.77;;
4821;SDS011;2425;47.794;13.068;2023-06-14T09:50:42;2.23;;;2.23;;
4821;SDS011;2425;47.794;13.068;2023-06-14T09:53:11;4.97;;;2.17;;
4821;SDS011;2425;47.794;13.068;2023-06-14T09:55:39;3.37;;;2.37;;
4821;SDS011;2425;47.794;13.068;2023-06-14T09:58:09;3.00;;;2.80;;
4821;SDS011;2425;47.794;13.068;2023-06-14T10:00:37;2.17;;;2.07;;
4821;SDS011;2425;47.794;13.068;2023-06-14T10:03:06;2.30;;;2.20;;
4821;SDS011;2425;47.794;13.068;2023-06-14T10:05:38;2.20;;;2.10;;
4821;SDS011;2425;47.794;13.068;2023-06-14T10:08:07;2.50;;;2.40;;
4821;SDS011;2425;47.794;13.068;2023-06-14T10:10:35;2.60;;;2.40;;
4821;SDS011;2425;47.794;13.068;2023-06-14T10:13:02;2.50;;;2.40;;
4821;SDS011;2425;47.794;13.068;2023-06-14T10:15:30;2.43;;;2.20;;
4821;SDS011;2425;47.794;13.068;2023-06-14T10:18:02;2.70;;;2.50;;
4821;SDS011;2425;47.794;13.068;2023-06-14T10:20:35;3.50;;;3.30;;
4821;SDS011;2425;47.794;13.068;2023-06-14T10:23:06;3.60;;;3.30;;
4821;SDS011;2425;47.794;13.068;2023-06-14T10:25:36;3.23;;;3.03;;
4821;SDS011;2425;47.794;13.068;2023-06-14T10:28:03;10.97;;;3.43;;
4821;SDS011;2425;47.794;13.068;2023-06-14T10:33:31;3.30;;;3.10;;
4821;SDS011;2425;47.794;13.068;2023-06-14T10:36:07;3.40;;;3.20;;
4821;SDS011;2425;47.794;13.068;2023-06-14T10:38:58;4.37;;;3.40;;
4821;SDS011;2425;47.794;13.068;2023-06-14T10:41:26;4.60;;;3.23;;
4821;SDS011;2425;47.794;13.068;2023-06-14T10:46:55;5.53;;;4.50;;
4821;SDS011;2425;47.794;13.068;2023-06-14T10:49:36;4.13;;;3.83;;
4821;SDS011;2425;47.794;13.068;2023-06-14T10:52:07;7.13;;;3.97;;
4821;SDS011;2425;47.794;13.068;2023-06-14T10:57:38;4.40;;;3.90;;
4821;SDS011;2425;47.794;13.068;2023-06-14T11:00:06;3.63;;;3.27;;
4821;SDS011;2425;47.794;13.068;2023-06-14T11:02:55;4.30;;;3.90;;
4821;SDS011;2425;47.794;13.068;2023-06-14T11:05:59;5.00;;;4.10;;
4821;SDS011;2425;47.794;13.068;2023-06-14T11:11:29;4.03;;;3.40;;
4821;SDS011;2425;47.794;13.068;2023-06-14T11:13:59;3.70;;;3.40;;
4821;SDS011;2425;47.794;13.068;2023-06-14T11:16:26;3.77;;;3.47;;
4821;SDS011;2425;47.794;13.068;2023-06-14T11:18:55;8.90;;;3.63;;
4821;SDS011;2425;47.794;13.068;2023-06-14T11:21:21;3.87;;;3.40;;
4821;SDS011;2425;47.794;13.068;2023-06-14T11:23:50;3.20;;;2.90;;
4821;SDS011;2425;47.794;13.068;2023-06-14T11:26:24;3.97;;;3.67;;
4821;SDS011;2425;47.794;13.068;2023-06-14T11:28:54;3.27;;;3.07;;
4821;SDS011;2425;47.794;13.068;2023-06-14T11:31:22;4.70;;;3.47;;
4821;SDS011;2425;47.794;13.068;2023-06-14T11:33:49;4.30;;;3.30;;
4821;SDS011;2425;47.794;13.068;2023-06-14T11:36:18;3.97;;;3.43;;
4821;SDS011;2425;47.794;13.068;2023-06-14T11:38:44;3.10;;;2.90;;
4821;SDS011;2425;47.794;13.068;2023-06-14T11:41:11;4.10;;;3.37;;
4821;SDS011;2425;47.794;13.068;2023-06-14T11:43:39;3.90;;;3.60;;
4821;SDS011;2425;47.794;13.068;2023-06-14T11:46:11;3.87;;;3.40;;
4821;SDS011;2425;47.794;13.068;2023-06-14T11:48:40;3.50;;;3.20;;
4821;SDS011;2425;47.794;13.068;2023-06-14T11:51:07;3.10;;;2.90;;
4821;SDS011;2425;47.794;13.068;2023-06-14T11:53:35;5.53;;;3.53;;
4821;SDS011;2425;47.794;13.068;2023-06-14T11:56:02;3.23;;;3.03;;
4821;SDS011;2425;47.794;13.068;2023-06-14T11:58:29;3.97;;;3.30;;
4821;SDS011;2425;47.794;13.068;2023-06-14T12:00:56;4.00;;;3.67;;
4821;SDS011;2425;47.794;13.068;2023-06-14T12:03:23;4.70;;;3.60;;
4821;SDS011;2425;47.794;13.068;2023-06-14T12:06:01;3.33;;;3.13;;
4821;SDS011;2425;47.794;13.068;2023-06-14T12:08:32;3.93;;;3.40;;
4821;SDS011;2425;47.794;13.068;2023-06-14T12:11:05;4.40;;;3.97;;
4821;SDS011;2425;47.794;13.068;2023-06-14T12:13:33;3.90;;;3.60;;
4821;SDS011;2425;47.794;13.068;2023-06-14T12:16:01;4.93;;;3.70;;
4821;SDS011;2425;47.794;13.068;2023-06-14T12:18:32;6.27;;;4.00;;
4821;SDS011;2425;47.794;13.068;2023-06-14T12:21:00;4.30;;;4.00;;
4821;SDS011;2425;47.794;13.068;2023-06-14T12:23:38;4.80;;;4.40;;
4821;SDS011;2425;47.794;13.068;2023-06-14T12:26:07;4.23;;;3.60;;
4821;SDS011;2425;47.794;13.068;2023-06-14T12:28:33;5.07;;;4.60;;
4821;SDS011;2425;47.794;13.068;2023-06-14T12:31:00;5.27;;;4.13;;
4821;SDS011;2425;47.794;13.068;2023-06-14T12:34:00;4.60;;;4.20;;
4821;SDS011;2425;47.794;13.068;2023-06-14T12:36:36;5.63;;;4.10;;
4821;SDS011;2425;47.794;13.068;2023-06-14T12:39:06;4.60;;;4.30;;
4821;SDS011;2425;47.794;13.068;2023-06-14T12:41:41;4.57;;;4.13;;
4821;SDS011;2425;47.794;13.068;2023-06-14T12:44:14;3.93;;;3.63;;
4821;SDS011;2425;47.794;13.068;2023-06-14T12:46:41;3.83;;;3.53;;
4821;SDS011;2425;47.794;13.068;2023-06-14T12:49:09;4.20;;;3.80;;
4821;SDS011;2425;47.794;13.068;2023-06-14T12:51:46;4.07;;;3.70;;
4821;SDS011;2425;47.794;13.068;2023-06-14T12:54:19;3.93;;;3.60;;
4821;SDS011;2425;47.794;13.068;2023-06-14T12:56:48;4.17;;;3.77;;
4821;SDS011;2425;47.794;13.068;2023-06-14T12:59:16;5.77;;;3.93;;
4821;SDS011;2425;47.794;13.068;2023-06-14T13:01:43;4.33;;;4.00;;
4821;SDS011;2425;47.794;13.068;2023-06-14T13:04:10;7.30;;;3.57;;
4821;SDS011;2425;47.794;13.068;2023-06-14T13:06:36;5.00;;;4.63;;
4821;SDS011;2425;47.794;13.068;2023-06-14T13:09:03;6.23;;;4.87;;
4821;SDS011;2425;47.794;13.068;2023-06-14T13:11:30;10.40;;;5.20;;
4821;SDS011;2425;47.794;13.068;2023-06-14T13:13:58;5.43;;;4.90;;
4821;SDS011;2425;47.794;13.068;2023-06-14T13:16:25;5.50;;;5.00;;
4821;SDS011;2425;47.794;13.068;2023-06-14T13:18:51;5.20;;;4.80;;
4821;SDS011;2425;47.794;13.068;2023-06-14T13:21:18;4.87;;;4.47;;
4821;SDS011;2425;47.794;13.068;2023-06-14T13:23:45;5.20;;;4.20;;
4821;SDS011;2425;47.794;13.068;2023-06-14T13:26:12;6.83;;;4.40;;
4821;SDS011;2425;47.794;13.068;2023-06-14T13:28:40;4.77;;;4.47;;
4821;SDS011;2425;47.794;13.068;2023-06-14T13:31:08;5.27;;;4.23;;
4821;SDS011;2425;47.794;13.068;2023-06-14T13:33:35;5.37;;;4.87;;
4821;SDS011;2425;47.794;13.068;2023-06-14T13:36:01;4.87;;;4.20;;
4821;SDS011;2425;47.794;13.068;2023-06-14T13:38:28;3.80;;;3.50;;
4821;SDS011;2425;47.794;13.068;2023-06-14T13:40:55;4.40;;;4.00;;
4821;SDS011;2425;47.794;13.068;2023-06-14T13:43:22;5.67;;;3.80;;
4821;SDS011;2425;47.794;13.068;2023-06-14T13:45:49;4.27;;;3.90;;
4821;SDS011;2425;47.794;13.068;2023-06-14T13:48:17;4.17;;;3.60;;
4821;SDS011;2425;47.794;13.068;2023-06-14T13:50:44;4.30;;;3.80;;
4821;SDS011;2425;47.794;13.068;2023-06-14T13:53:11;3.80;;;3.50;;
4821;SDS011;2425;47.794;13.068;2023-06-14T13:55:39;6.33;;;3.93;;
4821;SDS011;2425;47.794;13.068;2023-06-14T13:58:05;4.30;;;3.80;;
4821;SDS011;2425;47.794;13.068;2023-06-14T14:00:32;3.70;;;3.33;;
4821;SDS011;2425;47.794;13.068;2023-06-14T14:02:59;3.70;;;3.40;;
4821;SDS011;2425;47.794;13.068;2023-06-14T14:05:27;3.70;;;3.30;;
4821;SDS011;2425;47.794;13.068;2023-06-14T14:07:54;6.10;;;3.27;;
4821;SDS011;2425;47.794;13.068;2023-06-14T14:10:22;4.10;;;3.50;;
4821;SDS011;2425;47.794;13.068;2023-06-14T14:12:48;3.50;;;3.30;;
4821;SDS011;2425;47.794;13.068;2023-06-14T14:15:16;3.33;;;3.13;;
4821;SDS011;2425;47.794;13.068;2023-06-14T14:17:42;3.27;;;3.07;;
4821;SDS011;2425;47.794;13.068;2023-06-14T14:20:09;5.60;;;3.67;;
4821;SDS011;2425;47.794;13.068;2023-06-14T14:22:39;5.50;;;3.60;;
4821;SDS011;2425;47.794;13.068;2023-06-14T14:25:06;13.60;;;3.47;;
4821;SDS011;2425;47.794;13.068;2023-06-14T14:27:33;4.10;;;3.30;;
4821;SDS011;2425;47.794;13.068;2023-06-14T14:29:59;3.70;;;3.40;;
4821;SDS011;2425;47.794;13.068;2023-06-14T14:32:26;3.53;;;3.23;;
4821;SDS011;2425;47.794;13.068;2023-06-14T14:34:53;12.23;;;3.53;;
4821;SDS011;2425;47.794;13.068;2023-06-14T14:37:19;4.97;;;3.67;;
4821;SDS011;2425;47.794;13.068;2023-06-14T14:39:48;3.63;;;3.43;;
4821;SDS011;2425;47.794;13.068;2023-06-14T14:42:14;4.47;;;3.43;;
4821;SDS011;2425;47.794;13.068;2023-06-14T14:44:41;9.03;;;3.60;;
4821;SDS011;2425;47.794;13.068;2023-06-14T14:47:09;3.30;;;3.00;;
4821;SDS011;2425;47.794;13.068;2023-06-14T14:49:36;8.77;;;3.53;;
4821;SDS011;2425;47.794;13.068;2023-06-14T14:52:03;3.57;;;3.33;;
4821;SDS011;2425;47.794;13.068;2023-06-14T14:54:30;4.37;;;3.17;;
4821;SDS011;2425;47.794;13.068;2023-06-14T14:56:58;4.20;;;3.80;;
4821;SDS011;2425;47.794;13.068;2023-06-14T14:59:31;3.80;;;3.43;;
4821;SDS011;2425;47.794;13.068;2023-06-14T15:01:58;3.60;;;3.30;;
4821;SDS011;2425;47.794;13.068;2023-06-14T15:04:25;3.73;;;3.53;;
4821;SDS011;2425;47.794;13.068;2023-06-14T15:06:52;4.67;;;3.60;;
4821;SDS011;2425;47.794;13.068;2023-06-14T15:09:19;5.83;;;2.97;;
4821;SDS011;2425;47.794;13.068;2023-06-14T15:11:46;3.43;;;3.23;;
4821;SDS011;2425;47.794;13.068;2023-06-14T15:14:14;3.90;;;3.60;;
4821;SDS011;2425;47.794;13.068;2023-06-14T15:16:41;3.70;;;3.40;;
4821;SDS011;2425;47.794;13.068;2023-06-14T15:19:07;3.37;;;3.17;;